Time;durP1;ratioP1;P1;durP2;ratioP2;P2;SDS_P1;SDS_P2;PMS_P1;PMS_P2;Temp;Humidity;BMP_temperature;BMP_pressure;BME280_temperature;BME280_humidity;BME280_pressure;Samples;Min_cycle;Max_cycle;Signal;HPM_P1;HPM_P2
2023/02/04 00:00:22;;;;;;;32.85;5.38;;;;;;;5.42;100.00;103439.81;5116796;28;20051;-79
2023/02/04 00:02:47;;;;;;;38.35;5.03;;;;;;;5.46;100.00;103446.75;5117230;28;20055;-78
2023/02/04 00:05:15;;;;;;;33.25;5.53;;;;;;;5.46;100.00;103449.38;5116547;28;20039;-78
2023/02/04 00:07:40;;;;;;;34.10;4.88;;;;;;;5.46;100.00;103440.56;5116591;28;20031;-78
2023/02/04 00:10:06;;;;;;;28.65;4.60;;;;;;;5.45;100.00;103444.16;5115518;28;20106;-77
2023/02/04 00:12:33;;;;;;;25.17;5.22;;;;;;;5.48;100.00;103444.06;5116607;28;20208;-78
2023/02/04 00:14:59;;;;;;;36.63;4.72;;;;;;;5.47;100.00;103448.44;5116547;28;20032;-78
2023/02/04 00:17:24;;;;;;;38.53;5.13;;;;;;;5.48;100.00;103447.56;5116519;28;20034;-78
2023/02/04 00:19:49;;;;;;;29.85;4.22;;;;;;;5.50;100.00;103457.22;5116817;28;20031;-77
2023/02/04 00:22:15;;;;;;;36.13;5.05;;;;;;;5.52;100.00;103455.38;5116454;28;20110;-77
2023/02/04 00:24:41;;;;;;;31.50;5.47;;;;;;;5.53;100.00;103451.84;5116123;28;20456;-77
2023/02/04 00:27:07;;;;;;;29.23;4.82;;;;;;;5.55;100.00;103450.03;5115906;28;20410;-77
2023/02/04 00:29:33;;;;;;;27.33;5.15;;;;;;;5.55;100.00;103448.25;5115787;28;20027;-77
2023/02/04 00:31:58;;;;;;;24.30;4.43;;;;;;;5.56;100.00;103446.47;5116692;28;20207;-77
2023/02/04 00:34:24;;;;;;;27.70;4.68;;;;;;;5.56;100.00;103451.75;5115883;28;20072;-76
2023/02/04 00:36:49;;;;;;;29.48;4.68;;;;;;;5.55;100.00;103450.03;5116268;28;20052;-77
2023/02/04 00:39:14;;;;;;;28.52;4.35;;;;;;;5.57;100.00;103454.34;5115797;28;20042;-77
2023/02/04 00:41:40;;;;;;;22.67;3.78;;;;;;;5.60;100.00;103450.78;5116023;28;20023;-77
2023/02/04 00:44:05;;;;;;;29.05;4.07;;;;;;;5.59;100.00;103457.81;5116033;28;20460;-77
2023/02/04 00:46:31;;;;;;;26.80;4.28;;;;;;;5.59;100.00;103462.25;5116548;28;20437;-77
2023/02/04 00:48:56;;;;;;;31.30;4.68;;;;;;;5.58;100.00;103463.13;5115645;28;20051;-77
2023/02/04 00:51:21;;;;;;;29.30;4.75;;;;;;;5.61;100.00;103469.22;5114929;28;20076;-77
2023/02/04 00:53:47;;;;;;;29.85;5.15;;;;;;;5.61;100.00;103463.94;5115681;28;20463;-77
2023/02/04 00:56:12;;;;;;;31.48;4.63;;;;;;;5.62;100.00;103470.94;5115546;28;20047;-77
2023/02/04 00:58:37;;;;;;;24.42;3.80;;;;;;;5.62;100.00;103462.16;5115701;28;20027;-77
2023/02/04 01:01:03;;;;;;;26.88;4.00;;;;;;;5.65;100.00;103467.34;5115676;28;20125;-77
2023/02/04 01:03:28;;;;;;;35.58;5.03;;;;;;;5.64;100.00;103466.50;5115924;28;20513;-77
2023/02/04 01:05:54;;;;;;;30.20;4.20;;;;;;;5.62;100.00;103470.94;5115504;28;20031;-77
2023/02/04 01:08:19;;;;;;;28.02;4.07;;;;;;;5.63;100.00;103471.81;5115667;28;20034;-79
2023/02/04 01:10:45;;;;;;;34.83;5.43;;;;;;;5.62;100.00;103468.28;5115681;28;20436;-77
2023/02/04 01:13:10;;;;;;;36.50;4.35;;;;;;;5.62;100.00;103472.72;5115996;28;20039;-77
2023/02/04 01:15:36;;;;;;;28.05;4.30;;;;;;;5.58;100.00;103464.03;5115632;28;20031;-77
2023/02/04 01:18:01;;;;;;;27.23;4.45;;;;;;;5.60;100.00;103472.75;5115496;28;20029;-77
2023/02/04 01:20:27;;;;;;;30.05;4.32;;;;;;;5.62;100.00;103462.16;5115404;28;20084;-77
2023/02/04 01:22:52;;;;;;;32.10;4.00;;;;;;;5.64;100.00;103477.06;5115134;28;20023;-76
2023/02/04 01:25:18;;;;;;;28.20;3.92;;;;;;;5.63;100.00;103477.97;5115214;28;20509;-77
2023/02/04 01:27:44;;;;;;;32.95;4.85;;;;;;;5.65;100.00;103481.41;5115181;28;20110;-76
2023/02/04 01:30:10;;;;;;;28.40;4.57;;;;;;;5.66;100.00;103477.00;5115164;28;20036;-76
2023/02/04 01:32:36;;;;;;;29.05;3.85;;;;;;;5.63;100.00;103485.03;5114903;28;20031;-77
2023/02/04 01:35:02;;;;;;;37.42;4.82;;;;;;;5.61;100.00;103482.44;5114638;28;20035;-76
2023/02/04 01:37:27;;;;;;;35.13;4.45;;;;;;;5.59;100.00;103486.00;5114929;28;20031;-77
2023/02/04 01:39:52;;;;;;;28.75;3.92;;;;;;;5.59;100.00;103486.88;5113548;28;20023;-77
2023/02/04 01:42:18;;;;;;;31.27;4.65;;;;;;;5.55;100.00;103490.50;5114627;28;20103;-77
2023/02/04 01:44:43;;;;;;;33.22;3.72;;;;;;;5.53;100.00;103492.31;5114381;28;20043;-77
2023/02/04 01:47:09;;;;;;;32.92;5.75;;;;;;;5.52;100.00;103498.50;5115273;28;20424;-76
2023/02/04 01:49:34;;;;;;;27.55;4.32;;;;;;;5.52;100.00;103495.00;5113340;28;20032;-77
2023/02/04 01:52:01;;;;;;;35.63;4.10;;;;;;;5.53;100.00;103499.38;5114430;28;20024;-77
2023/02/04 01:54:27;;;;;;;21.40;3.05;;;;;;;5.50;100.00;103504.75;5114251;28;20105;-77
2023/02/04 01:56:54;;;;;;;35.72;4.88;;;;;;;5.51;100.00;103507.34;5115046;28;20431;-77
2023/02/04 01:59:20;;;;;;;30.58;4.47;;;;;;;5.49;100.00;103503.88;5114506;28;20110;-77
2023/02/04 02:01:48;;;;;;;31.75;3.90;;;;;;;5.48;100.00;103504.78;5114928;28;20055;-77
2023/02/04 02:04:17;;;;;;;33.20;4.07;;;;;;;5.47;100.00;103511.84;5113867;28;20020;-77
2023/02/04 02:06:48;;;;;;;29.60;4.43;;;;;;;5.46;100.00;103506.59;5113062;28;20114;-77
2023/02/04 02:09:14;;;;;;;27.45;3.17;;;;;;;5.46;100.00;103510.13;5114343;28;20052;-77
2023/02/04 02:11:39;;;;;;;26.63;3.42;;;;;;;5.44;100.00;103511.06;5114215;28;20028;-77
2023/02/04 02:14:05;;;;;;;34.22;3.58;;;;;;;5.42;100.00;103505.81;5114573;28;20457;-77
2023/02/04 02:16:30;;;;;;;29.95;3.50;;;;;;;5.44;100.00;103511.91;5113943;28;20035;-77
2023/02/04 02:18:57;;;;;;;38.20;3.95;;;;;;;5.45;100.00;103515.44;5114903;28;20340;-77
2023/02/04 02:21:33;;;;;;;29.08;4.20;;;;;;;5.44;100.00;103517.19;5114785;28;20042;-76
2023/02/04 02:24:02;;;;;;;23.40;3.08;;;;;;;5.43;100.00;103520.75;5114244;28;20023;-77
2023/02/04 02:26:28;;;;;;;32.33;4.03;;;;;;;5.41;100.00;103517.28;5113978;28;20032;-77
2023/02/04 02:28:54;;;;;;;29.58;3.90;;;;;;;5.40;100.00;103515.53;5113823;28;20432;-77
2023/02/04 02:31:21;;;;;;;32.03;3.70;;;;;;;5.36;100.00;103521.81;5113887;28;20054;-77
2023/02/04 02:33:47;;;;;;;19.88;3.80;;;;;;;5.34;100.00;103534.19;5113839;28;20027;-77
2023/02/04 02:36:13;;;;;;;19.55;3.03;;;;;;;5.32;100.00;103532.50;5114136;28;20031;-76
2023/02/04 02:38:39;;;;;;;28.10;3.92;;;;;;;5.32;100.00;103543.06;5114311;28;20106;-77
2023/02/04 02:41:07;;;;;;;28.02;3.70;;;;;;;5.32;100.00;103543.91;5114359;28;20023;-77
2023/02/04 02:43:34;;;;;;;29.48;4.25;;;;;;;5.32;100.00;103533.38;5113675;28;20036;-77
2023/02/04 02:46:01;;;;;;;21.05;3.08;;;;;;;5.31;100.00;103539.53;5114044;28;20073;-77
2023/02/04 02:48:26;;;;;;;29.95;3.75;;;;;;;5.32;100.00;103541.28;5112782;28;20035;-77
2023/02/04 02:50:52;;;;;;;34.13;4.38;;;;;;;5.34;100.00;103535.97;5112319;28;20421;-77
2023/02/04 02:53:19;;;;;;;30.27;3.47;;;;;;;5.33;100.00;103535.09;5113366;28;20027;-77
2023/02/04 02:55:45;;;;;;;26.52;2.85;;;;;;;5.33;100.00;103545.66;5114051;28;20028;-77
2023/02/04 02:58:27;;;;;;;23.42;3.60;;;;;;;5.33;100.00;103550.06;5112437;28;20057;-77
2023/02/04 03:00:53;;;;;;;36.30;4.30;;;;;;;5.37;100.00;103549.94;5113314;28;20030;-77
2023/02/04 03:03:23;;;;;;;20.55;4.10;;;;;;;5.39;100.00;103549.91;5113724;28;20385;-77
2023/02/04 03:05:53;;;;;;;33.22;4.93;;;;;;;5.41;100.00;103548.97;5113787;28;20027;-76
2023/02/04 03:08:19;;;;;;;27.23;3.60;;;;;;;5.41;100.00;103546.31;5113244;28;20055;-76
2023/02/04 03:10:45;;;;;;;30.30;3.65;;;;;;;5.41;100.00;103548.97;5112038;28;20111;-77
2023/02/04 03:13:13;;;;;;;32.25;3.75;;;;;;;5.41;100.00;103545.47;5113971;28;20062;-77
2023/02/04 03:15:39;;;;;;;27.63;3.25;;;;;;;5.43;100.00;103551.56;5115393;28;20031;-77
2023/02/04 03:18:05;;;;;;;34.95;4.25;;;;;;;5.42;100.00;103549.81;5116331;28;20042;-77
2023/02/04 03:20:31;;;;;;;33.70;3.88;;;;;;;5.41;100.00;103551.59;5116426;28;20459;-77
2023/02/04 03:22:57;;;;;;;32.75;4.07;;;;;;;5.41;100.00;103551.59;5117453;28;20027;-76
2023/02/04 03:25:25;;;;;;;26.75;3.30;;;;;;;5.40;100.00;103551.66;5117542;28;20036;-76
2023/02/04 03:27:53;;;;;;;32.47;4.25;;;;;;;5.38;100.00;103549.03;5117371;28;20039;-77
2023/02/04 03:30:19;;;;;;;25.23;3.90;;;;;;;5.39;100.00;103556.06;5117442;28;20099;-76
2023/02/04 03:32:45;;;;;;;32.05;4.20;;;;;;;5.39;100.00;103547.25;5117042;28;20034;-77
2023/02/04 03:35:10;;;;;;;31.92;3.80;;;;;;;5.39;100.00;103544.63;5117703;28;20024;-77
2023/02/04 03:37:35;;;;;;;34.55;4.20;;;;;;;5.38;100.00;103553.47;5117383;28;20435;-76
2023/02/04 03:40:01;;;;;;;37.78;4.60;;;;;;;5.39;100.00;103548.16;5117098;28;20062;-77
2023/02/04 03:42:26;;;;;;;25.85;3.63;;;;;;;5.36;100.00;103536.78;5117161;28;20027;-77
2023/02/04 03:44:51;;;;;;;36.22;3.92;;;;;;;5.30;100.00;103532.53;5117077;28;20057;-77
2023/02/04 03:47:17;;;;;;;36.20;4.40;;;;;;;5.19;100.00;103540.72;5117271;28;20071;-77
2023/02/04 03:49:42;;;;;;;37.72;3.95;;;;;;;5.07;100.00;103538.38;5117365;28;20031;-77
2023/02/04 03:52:07;;;;;;;28.25;4.30;;;;;;;5.02;100.00;103537.63;5116875;28;20019;-76
2023/02/04 03:54:33;;;;;;;37.15;4.70;;;;;;;4.92;100.00;103527.28;5116944;28;20047;-77
2023/02/04 03:56:58;;;;;;;34.65;5.20;;;;;;;4.80;100.00;103521.44;5116834;28;20031;-77
2023/02/04 03:59:23;;;;;;;30.48;4.15;;;;;;;4.68;100.00;103520.81;5116294;28;20123;-77
2023/02/04 04:01:49;;;;;;;30.45;4.38;;;;;;;4.55;100.00;103527.25;5116860;28;20046;-77
2023/02/04 04:04:14;;;;;;;40.17;5.15;;;;;;;4.46;100.00;103530.97;5116614;28;20027;-77
2023/02/04 04:06:39;;;;;;;28.55;4.25;;;;;;;4.40;100.00;103539.00;5117036;28;20115;-77
2023/02/04 04:09:05;;;;;;;37.85;4.00;;;;;;;4.34;100.00;103544.41;5117687;28;20112;-77
2023/02/04 04:11:30;;;;;;;29.73;4.00;;;;;;;4.31;100.00;103544.47;5117432;28;20081;-77
2023/02/04 04:13:55;;;;;;;26.90;3.53;;;;;;;4.27;100.00;103550.72;5117986;28;20028;-77
2023/02/04 04:16:21;;;;;;;36.92;4.25;;;;;;;4.31;100.00;103552.38;5115346;28;20028;-77
2023/02/04 04:18:47;;;;;;;44.50;5.25;;;;;;;4.44;100.00;103558.28;5116456;28;20026;-77
2023/02/04 04:21:12;;;;;;;37.47;5.57;;;;;;;4.55;100.00;103559.78;5116370;28;20106;-77
2023/02/04 04:23:37;;;;;;;34.50;4.35;;;;;;;4.66;100.00;103569.22;5116379;28;20119;-77
2023/02/04 04:26:03;;;;;;;43.28;6.25;;;;;;;4.73;100.00;103562.91;5115894;28;20039;-76
2023/02/04 04:28:28;;;;;;;43.10;5.15;;;;;;;4.80;100.00;103568.94;5116404;28;20050;-77
2023/02/04 04:30:54;;;;;;;34.65;5.05;;;;;;;4.85;100.00;103577.59;5116295;28;20036;-77
2023/02/04 04:33:19;;;;;;;43.72;5.82;;;;;;;4.91;100.00;103573.06;5116214;28;20454;-77
2023/02/04 04:35:45;;;;;;;50.25;6.15;;;;;;;4.98;100.00;103575.56;5115886;28;20421;-76
2023/02/04 04:38:10;;;;;;;49.80;6.00;;;;;;;5.02;100.00;103574.59;5115808;28;20058;-77
2023/02/04 04:40:35;;;;;;;35.45;4.72;;;;;;;5.04;100.00;103578.03;5116112;28;20105;-77
2023/02/04 04:43:01;;;;;;;32.15;4.38;;;;;;;5.04;100.00;103578.91;5115594;28;20042;-77
2023/02/04 04:45:26;;;;;;;37.60;5.13;;;;;;;5.08;100.00;103590.28;5116210;28;20073;-77
2023/02/04 04:47:52;;;;;;;30.10;4.50;;;;;;;5.10;100.00;103588.44;5115756;28;20450;-77
2023/02/04 04:50:17;;;;;;;39.70;4.72;;;;;;;5.15;100.00;103604.16;5115905;28;20387;-77
2023/02/04 04:52:44;;;;;;;32.97;4.35;;;;;;;5.17;100.00;103603.25;5097816;28;20113;-77
2023/02/04 04:55:09;;;;;;;27.63;4.53;;;;;;;5.22;100.00;103601.34;5116154;28;20451;-76
2023/02/04 04:57:35;;;;;;;45.92;4.70;;;;;;;5.29;100.00;103596.81;5116002;28;20505;-77
2023/02/04 05:00:00;;;;;;;39.72;5.25;;;;;;;5.32;100.00;103593.22;5115932;28;20331;-76
2023/02/04 05:02:25;;;;;;;42.97;5.72;;;;;;;5.37;100.00;103599.25;5116062;28;20040;-76
2023/02/04 05:04:51;;;;;;;31.60;4.10;;;;;;;5.40;100.00;103597.38;5114520;28;20443;-77
2023/02/04 05:07:16;;;;;;;43.13;5.80;;;;;;;5.42;100.00;103597.34;5115832;28;20027;-77
2023/02/04 05:09:41;;;;;;;45.78;5.13;;;;;;;5.40;100.00;103592.09;5115529;28;20020;-77
2023/02/04 05:12:07;;;;;;;41.75;4.88;;;;;;;5.40;100.00;103601.81;5115493;28;20363;-77
2023/02/04 05:14:32;;;;;;;43.03;5.18;;;;;;;5.40;100.00;103604.47;5114099;28;20129;-77
2023/02/04 05:16:58;;;;;;;35.00;4.70;;;;;;;5.39;100.00;103598.31;5115376;28;20371;-78
2023/02/04 05:19:23;;;;;;;46.75;5.03;;;;;;;5.38;100.00;103599.22;5115293;28;20100;-77
2023/02/04 05:21:48;;;;;;;43.08;5.03;;;;;;;5.38;100.00;103601.84;5115021;28;20034;-77
2023/02/04 05:24:14;;;;;;;38.10;4.60;;;;;;;5.38;100.00;103598.34;5115116;28;20023;-77
2023/02/04 05:26:39;;;;;;;36.90;4.80;;;;;;;5.38;100.00;103596.56;5113651;28;20509;-77
2023/02/04 05:29:05;;;;;;;30.73;4.40;;;;;;;5.38;100.00;103598.34;5113788;28;20023;-77
2023/02/04 05:31:31;;;;;;;51.42;6.03;;;;;;;5.37;100.00;103600.09;5115089;28;20119;-77
2023/02/04 05:33:56;;;;;;;42.03;5.00;;;;;;;5.38;100.00;103603.63;5114908;28;20122;-77
2023/02/04 05:36:22;;;;;;;40.95;5.68;;;;;;;5.39;100.00;103602.72;5114721;28;20046;-77
2023/02/04 05:38:47;;;;;;;37.22;4.63;;;;;;;5.39;100.00;103610.63;5114328;28;20511;-77
2023/02/04 05:41:12;;;;;;;43.80;5.47;;;;;;;5.37;100.00;103608.03;5115027;28;20036;-77
2023/02/04 05:43:38;;;;;;;40.10;4.40;;;;;;;5.38;100.00;103608.91;5114773;28;20034;-76
2023/02/04 05:46:04;;;;;;;29.13;5.13;;;;;;;5.36;100.00;103613.34;5114812;28;20410;-76
2023/02/04 05:48:29;;;;;;;35.35;4.53;;;;;;;5.35;100.00;103612.50;5115076;28;20048;-77
2023/02/04 05:50:55;;;;;;;43.47;5.68;;;;;;;5.36;100.00;103614.25;5115043;28;20090;-77
2023/02/04 05:53:20;;;;;;;26.98;3.92;;;;;;;5.38;100.00;103619.47;5114471;28;20521;-76
2023/02/04 05:55:46;;;;;;;44.85;6.15;;;;;;;5.38;100.00;103616.84;5114869;28;20076;-76
2023/02/04 05:58:11;;;;;;;30.42;4.63;;;;;;;5.38;100.00;103624.75;5115065;28;20041;-76
2023/02/04 06:00:36;;;;;;;38.67;4.75;;;;;;;5.37;100.00;103623.88;5114644;28;20032;-77
2023/02/04 06:03:02;;;;;;;29.15;4.38;;;;;;;5.37;100.00;103630.94;5114250;28;20482;-76
2023/02/04 06:05:27;;;;;;;27.60;4.68;;;;;;;5.35;100.00;103633.63;5114460;28;20372;-76
2023/02/04 06:07:52;;;;;;;28.58;5.03;;;;;;;5.35;100.00;103641.53;5114384;28;20112;-76
2023/02/04 06:10:20;;;;;;;45.47;5.25;;;;;;;5.34;100.00;103629.22;5114881;28;20019;-76
2023/02/04 06:12:45;;;;;;;29.73;4.60;;;;;;;5.39;100.00;103642.31;5114849;28;20032;-79
2023/02/04 06:15:11;;;;;;;38.72;5.28;;;;;;;5.40;100.00;103636.16;5113977;28;20023;-79
2023/02/04 06:17:37;;;;;;;40.00;5.78;;;;;;;5.43;100.00;103639.59;5114893;28;20329;-76
2023/02/04 06:20:03;;;;;;;30.85;4.80;;;;;;;5.43;100.00;103646.63;5114575;28;20039;-79
2023/02/04 06:22:28;;;;;;;36.72;5.20;;;;;;;5.48;100.00;103644.75;5114211;28;20520;-79
2023/02/04 06:24:53;;;;;;;43.13;5.88;;;;;;;5.52;100.00;103651.69;5113810;28;20031;-79
2023/02/04 06:27:22;;;;;;;44.17;6.68;;;;;;;5.55;100.00;103648.09;5114006;28;20063;-76
2023/02/04 06:29:51;;;;;;;33.53;5.05;;;;;;;5.58;100.00;103645.38;5114056;28;20019;-79
2023/02/04 06:32:17;;;;;;;40.85;5.40;;;;;;;5.59;100.00;103649.78;5114524;28;20031;-79
2023/02/04 06:34:43;;;;;;;44.75;5.15;;;;;;;5.60;100.00;103649.75;5113954;28;20028;-78
2023/02/04 06:37:09;;;;;;;36.28;5.15;;;;;;;5.64;100.00;103648.75;5114380;28;20455;-78
2023/02/04 06:39:34;;;;;;;27.77;4.20;;;;;;;5.69;100.00;103650.41;5114023;28;20367;-76
2023/02/04 06:41:59;;;;;;;47.83;5.50;;;;;;;5.74;100.00;103654.66;5113907;28;20023;-78
2023/02/04 06:44:25;;;;;;;40.78;5.55;;;;;;;5.75;100.00;103660.84;5113782;28;20047;-79
2023/02/04 06:46:50;;;;;;;52.60;5.53;;;;;;;5.78;100.00;103658.97;5113260;28;20031;-79
2023/02/04 06:49:15;;;;;;;31.42;5.43;;;;;;;5.74;100.00;103662.59;5113179;28;20019;-79
2023/02/04 06:51:41;;;;;;;44.72;6.07;;;;;;;5.73;100.00;103660.88;5113475;28;20097;-78
2023/02/04 06:54:06;;;;;;;36.10;5.63;;;;;;;5.70;100.00;103663.56;5113462;28;20495;-76
2023/02/04 06:56:31;;;;;;;34.30;5.38;;;;;;;5.68;100.00;103670.69;5113925;28;20126;-78
2023/02/04 06:58:57;;;;;;;44.85;4.82;;;;;;;5.64;100.00;103677.81;5114180;28;20039;-79
2023/02/04 07:01:22;;;;;;;36.92;5.38;;;;;;;5.61;100.00;103682.28;5113641;28;20032;-78
2023/02/04 07:03:47;;;;;;;40.45;5.88;;;;;;;5.59;100.00;103678.84;5113501;28;20027;-78
2023/02/04 07:06:13;;;;;;;42.25;4.95;;;;;;;5.56;100.00;103682.41;5113568;28;20106;-78
2023/02/04 07:08:38;;;;;;;34.65;4.90;;;;;;;5.55;100.00;103685.94;5113643;28;20121;-78
2023/02/04 07:11:04;;;;;;;31.85;5.35;;;;;;;5.51;100.00;103683.41;5113855;28;20069;-78
2023/02/04 07:13:29;;;;;;;27.17;4.43;;;;;;;5.52;100.00;103688.66;5113572;28;20376;-78
2023/02/04 07:15:54;;;;;;;32.85;4.38;;;;;;;5.49;100.00;103691.38;5113779;28;20375;-78
2023/02/04 07:18:20;;;;;;;40.28;5.32;;;;;;;5.48;100.00;103698.44;5113458;28;20055;-78
2023/02/04 07:20:45;;;;;;;46.85;5.72;;;;;;;5.47;100.00;103688.78;5113631;28;20309;-77
2023/02/04 07:23:11;;;;;;;35.97;5.82;;;;;;;5.47;100.00;103693.19;5112742;28;20016;-77
2023/02/04 07:25:37;;;;;;;37.22;5.20;;;;;;;5.48;100.00;103698.44;5113561;28;20141;-77
2023/02/04 07:28:04;;;;;;;36.28;5.75;;;;;;;5.48;100.00;103695.81;5112145;28;20032;-77
2023/02/04 07:30:30;;;;;;;44.22;6.65;;;;;;;5.50;100.00;103693.13;5112840;28;20497;-77
2023/02/04 07:32:55;;;;;;;33.83;5.72;;;;;;;5.53;100.00;103700.97;5113173;28;20023;-77
2023/02/04 07:35:21;;;;;;;41.80;6.22;;;;;;;5.55;100.00;103693.88;5112950;28;20039;-77
2023/02/04 07:37:46;;;;;;;44.70;5.38;;;;;;;5.59;100.00;103694.69;5113440;28;20101;-77
2023/02/04 07:40:12;;;;;;;43.60;6.60;;;;;;;5.62;100.00;103703.38;5113325;28;20035;-77
2023/02/04 07:42:37;;;;;;;34.33;5.75;;;;;;;5.64;100.00;103708.63;5113333;28;20016;-77
2023/02/04 07:45:03;;;;;;;37.58;5.30;;;;;;;5.67;100.00;103711.19;5113348;28;20024;-77
2023/02/04 07:47:28;;;;;;;35.10;5.80;;;;;;;5.70;100.00;103710.28;5112884;28;20376;-77
2023/02/04 07:49:55;;;;;;;40.55;6.00;;;;;;;5.74;100.00;103704.00;5113462;28;20420;-77
2023/02/04 07:52:22;;;;;;;38.22;6.43;;;;;;;5.75;100.00;103708.41;5113155;28;20031;-77
2023/02/04 07:54:48;;;;;;;33.38;6.90;;;;;;;5.80;100.00;103707.34;5113112;28;20051;-78
2023/02/04 07:57:13;;;;;;;36.45;6.32;;;;;;;5.84;100.00;103710.81;5113158;28;20020;-77
2023/02/04 07:59:38;;;;;;;39.95;7.28;;;;;;;5.86;100.00;103713.41;5113345;28;20059;-79
2023/02/04 08:02:04;;;;;;;37.17;7.18;;;;;;;5.91;100.00;103716.78;5115510;28;20363;-76
2023/02/04 08:04:29;;;;;;;44.15;7.07;;;;;;;5.94;100.00;103716.72;5116637;28;20114;-76
2023/02/04 08:06:54;;;;;;;36.40;7.30;;;;;;;5.97;100.00;103708.75;5116356;28;20028;-77
2023/02/04 08:09:20;;;;;;;43.75;7.22;;;;;;;5.98;100.00;103713.13;5116800;28;20027;-77
2023/02/04 08:11:45;;;;;;;44.45;8.40;;;;;;;6.04;100.00;103707.69;5117129;28;20043;-81
2023/02/04 08:14:11;;;;;;;53.58;9.02;;;;;;;6.09;100.00;103710.22;5115606;28;20047;-78
2023/02/04 08:16:36;;;;;;;38.85;8.23;;;;;;;6.13;100.00;103712.72;5116500;28;20037;-78
2023/02/04 08:19:01;;;;;;;45.97;9.45;;;;;;;6.19;100.00;103722.28;5116804;28;20063;-79
2023/02/04 08:21:27;;;;;;;45.67;9.32;;;;;;;6.21;100.00;103730.19;5116753;28;20028;-79
2023/02/04 08:23:52;;;;;;;40.08;9.15;;;;;;;6.24;100.00;103738.91;5117068;28;20027;-80
2023/02/04 08:26:18;;;;;;;48.05;10.90;;;;;;;6.29;100.00;103738.78;5116763;28;20019;-76
2023/02/04 08:28:43;;;;;;;48.97;9.13;;;;;;;6.36;100.00;103745.66;5116254;28;20027;-76
2023/02/04 08:31:10;;;;;;;40.08;8.57;;;;;;;6.43;100.00;103747.22;5115322;28;20031;-77
2023/02/04 08:33:37;;;;;;;40.72;9.43;;;;;;;6.50;100.00;103742.63;5116602;28;20397;-78
2023/02/04 08:36:03;;;;;;;47.28;9.15;;;;;;;6.54;100.00;103749.59;5116455;28;20350;-77
2023/02/04 08:38:28;;;;;;;43.85;8.98;;;;;;;6.59;100.00;103752.09;5116340;28;20447;-79
2023/02/04 08:40:54;;;;;;;35.38;8.05;;;;;;;6.64;100.00;103756.38;5115988;28;20034;-78
2023/02/04 08:43:19;;;;;;;36.92;9.07;;;;;;;6.68;100.00;103750.06;5114902;28;20460;-78
2023/02/04 08:45:44;;;;;;;42.00;9.52;;;;;;;6.74;100.00;103756.09;5114888;28;20111;-79
2023/02/04 08:48:10;;;;;;;37.65;8.45;;;;;;;6.78;100.00;103761.28;5115863;28;20429;-77
2023/02/04 08:50:35;;;;;;;31.33;8.10;;;;;;;6.78;100.00;103766.56;5116223;28;20466;-77
2023/02/04 08:53:01;;;;;;;39.03;9.20;;;;;;;6.81;100.00;103769.13;5116046;28;20025;-77
2023/02/04 08:55:26;;;;;;;41.03;8.93;;;;;;;6.84;100.00;103770.81;5115738;28;20487;-78
2023/02/04 08:57:51;;;;;;;51.80;9.70;;;;;;;6.84;100.00;103766.38;5115861;28;20150;-78
2023/02/04 09:00:17;;;;;;;34.95;9.30;;;;;;;6.89;100.00;103771.56;5116244;28;20020;-80
2023/02/04 09:02:42;;;;;;;37.15;8.85;;;;;;;6.92;100.00;103776.75;5116187;28;20028;-78
2023/02/04 09:05:08;;;;;;;40.45;8.80;;;;;;;6.94;100.00;103768.78;5116260;28;20050;-78
2023/02/04 09:07:33;;;;;;;44.25;9.35;;;;;;;6.96;100.00;103777.56;5114546;28;20032;-78
2023/02/04 09:09:58;;;;;;;35.55;8.75;;;;;;;6.96;100.00;103775.75;5115945;28;20035;-79
2023/02/04 09:12:24;;;;;;;47.72;9.55;;;;;;;6.97;100.00;103776.63;5115038;28;20394;-76
2023/02/04 09:14:49;;;;;;;42.67;8.82;;;;;;;6.98;100.00;103776.56;5115665;28;20523;-77
2023/02/04 09:17:14;;;;;;;45.20;9.90;;;;;;;7.00;100.00;103780.06;5117128;28;20024;-77
2023/02/04 09:19:40;;;;;;;46.95;8.90;;;;;;;7.05;100.00;103780.78;5083359;28;20074;-78
2023/02/04 09:22:05;;;;;;;39.47;9.23;;;;;;;7.14;100.00;103790.25;5119294;28;20033;-79
2023/02/04 09:24:30;;;;;;;38.50;9.85;;;;;;;7.24;100.00;103789.06;5117494;28;20070;-80
2023/02/04 09:26:56;;;;;;;39.55;8.77;;;;;;;7.29;100.00;103785.44;5115564;28;20081;-77
2023/02/04 09:29:21;;;;;;;38.15;8.77;;;;;;;7.38;100.00;103785.16;5115877;28;20016;-76
2023/02/04 09:31:47;;;;;;;36.00;9.80;;;;;;;7.45;100.00;103791.13;5115223;28;20473;-79
2023/02/04 09:34:13;;;;;;;39.63;10.07;;;;;;;7.49;100.00;103792.75;5115134;28;20039;-77
2023/02/04 09:36:38;;;;;;;37.80;8.82;;;;;;;7.56;100.00;103797.81;5115169;28;20080;-76
2023/02/04 09:39:05;;;;;;;38.30;9.45;;;;;;;7.63;100.00;103795.88;5113948;28;20059;-74
2023/02/04 09:41:32;;;;;;;44.67;8.82;;;;;;;7.74;100.00;103798.19;5114707;28;20471;-78
2023/02/04 09:43:58;;;;;;;42.60;8.18;;;;;;;7.79;100.00;103793.59;5115011;28;20035;-75
2023/02/04 09:46:27;;;;;;;47.50;9.38;;;;;;;7.89;100.00;103799.47;5115168;28;20031;-77
2023/02/04 09:48:53;;;;;;;38.53;8.15;;;;;;;7.97;100.00;103805.38;5115316;28;20027;-81
2023/02/04 09:51:22;;;;;;;30.45;7.05;;;;;;;8.02;100.00;103807.91;5115191;28;20027;-79
2023/02/04 09:53:52;;;;;;;27.02;6.95;;;;;;;8.05;100.00;103811.31;5114607;28;20349;-79
2023/02/04 09:56:18;;;;;;;26.27;6.80;;;;;;;8.06;100.00;103806.88;5115776;28;20093;-79
2023/02/04 09:58:43;;;;;;;30.35;6.18;;;;;;;8.10;100.00;103819.13;5113451;28;20023;-75
2023/02/04 10:01:19;;;;;;;28.23;5.35;;;;;;;8.09;100.00;103812.06;5114720;28;20031;-87
2023/02/04 10:03:47;;;;;;;29.58;5.00;;;;;;;7.99;100.00;103808.88;5114679;28;20447;-80
2023/02/04 10:06:22;;;;;;;27.25;5.28;;;;;;;7.97;100.00;103817.78;5114780;28;20042;-79
2023/02/04 10:08:49;;;;;;;32.38;4.78;;;;;;;7.92;100.00;103816.13;5114883;28;20440;-81
2023/02/04 10:11:17;;;;;;;31.92;5.60;;;;;;;7.94;100.00;103819.63;5114525;28;20031;-80
2023/02/04 10:13:45;;;;;;;26.92;5.05;;;;;;;7.95;100.00;103826.66;5114744;28;20054;-81
2023/02/04 10:16:17;;;;;;;29.95;5.35;;;;;;;8.01;100.00;103824.72;5114839;28;20038;-80
2023/02/04 10:18:43;;;;;;;28.75;4.70;;;;;;;8.09;100.00;103831.53;5114815;28;20027;-81
2023/02/04 10:21:16;;;;;;;24.98;4.35;;;;;;;8.10;100.00;103837.69;5114529;28;20028;-80
2023/02/04 10:23:43;;;;;;;25.80;4.30;;;;;;;8.13;100.00;103829.63;5114356;28;20054;-79
2023/02/04 10:26:10;;;;;;;28.33;4.22;;;;;;;8.23;100.00;103824.91;5114555;28;20073;-79
2023/02/04 10:28:36;;;;;;;36.28;4.93;;;;;;;8.29;100.00;103832.66;5113114;28;20061;-79
2023/02/04 10:31:02;;;;;;;23.77;4.85;;;;;;;8.28;100.00;103823.84;5115277;28;20019;-80
2023/02/04 10:33:27;;;;;;;19.75;3.72;;;;;;;8.35;100.00;103831.59;5114182;28;20095;-80
2023/02/04 10:35:55;;;;;;;22.58;3.58;;;;;;;8.32;100.00;103829.03;5112893;28;20463;-80
2023/02/04 10:38:22;;;;;;;23.90;4.45;;;;;;;8.36;100.00;103830.66;5114302;28;20023;-81
2023/02/04 10:40:48;;;;;;;19.10;3.78;;;;;;;8.36;100.00;103833.31;5114519;28;20023;-81
2023/02/04 10:43:20;;;;;;;20.98;3.72;;;;;;;8.40;100.00;103829.63;5114085;28;20042;-81
2023/02/04 10:45:53;;;;;;;16.50;3.42;;;;;;;8.41;100.00;103834.88;5114394;28;20030;-80
2023/02/04 10:48:19;;;;;;;25.90;4.97;;;;;;;8.40;100.00;103835.78;5113773;28;20448;-80
2023/02/04 10:50:46;;;;;;;21.15;3.88;;;;;;;8.40;100.00;103838.44;5113972;28;20039;-81
2023/02/04 10:56:01;;;;;;;21.02;4.20;;;;;;;8.26;100.00;103838.91;5114368;28;20054;-80
2023/02/04 10:58:28;;;;;;;24.77;4.35;;;;;;;8.19;100.00;103841.81;5114497;28;20023;-80
2023/02/04 11:00:53;;;;;;;18.90;3.70;;;;;;;8.14;100.00;103841.13;5113959;28;20107;-78
2023/02/04 11:03:22;;;;;;;27.13;4.03;;;;;;;8.16;100.00;103832.19;5114744;28;20129;-79
2023/02/04 11:05:48;;;;;;;24.35;3.90;;;;;;;8.20;100.00;103840.91;5113774;28;20471;-79
2023/02/04 11:08:23;;;;;;;21.15;4.03;;;;;;;8.25;100.00;103825.72;5114210;28;20031;-80
2023/02/04 11:11:15;;;;;;;24.08;4.45;;;;;;;8.31;100.00;103836.13;5113791;28;20027;-80
2023/02/04 11:13:49;;;;;;;;;;;;;;;8.32;100.00;103829.03;5105960;28;20040;-80